Flight Number: EUR2142 Duration: 1:30
Departure: Warsaw Okecie (EPWA) at 08:30 Distance: 485 Nm
Arrival: Frankfurt Airport (EDDF) at 10:00 Equipment: CRJ700

Weather Information
Warszawa-Okecie, Poland (EPWA) 52-10N 020-58E 107M May 23, 2018 - 08:00 PM EDT / 2018.05.24 0000 UTC
Wind: from the NE (040 degrees) at 10 MPH (9 KT):0
Visibility: greater than 7 mile(s):0 Temperature: 60 F (16 C) Dew Point: 50 F (10 C) Relative Humidity: 67% Pressure (altimeter): 30.24 in. Hg (1024 hPa)
ob: EPWA 240000Z 04009KT CAVOK 16/10 Q1024 NOSIG cycle: 0
Sunrise: 02:33 Sunset: 18:32 (UTC)

Frankfurt / M-Flughafen, Germany (EDDF) 50-03N 008-36E 113M May 23, 2018 - 08:20 PM EDT / 2018.05.24 0020 UTC
Wind: from the NNE (030 degrees) at 12 MPH (10 KT):0
Visibility: greater than 7 mile(s):0 Temperature: 64 F (18 C) Dew Point: 53 F (12 C) Relative Humidity: 67% Pressure (altimeter): 30.06 in. Hg (1018 hPa)
ob: EDDF 240020Z 03010KT CAVOK 18/12 Q1018 NOSIG cycle: 0
Sunrise: 03:32 Sunset: 19:13 (UTC)

TAF:2018/05/23 18:29 TAF EDDF 231700Z 2318/2424 04007KT 9999 SCT040 PROB30 TEMPO 2318/2321 SHRA BKN030CB TEMPO 2412/2422 SHRA BKN030CB PROB30 TEMPO 2412/2420 06015G25KT 4500 TSRA BKN020CB

Previous Pireps for this route
Date Aircraft Flight time Fuel used Landing rate On time
2012-10-14CRJ70001.398593-277No
2012-10-22CRJ7001.3070000Yes
2012-10-28CRJ70001.405690-71No
2013-08-27CRJ7001.4658640No
2013-09-18CRJ7001.3368100No
2014-07-23CRJ70001.357520-145Yes
2014-07-27CRJ70001.257441-286Yes
2015-04-10CRJ7001.2750900Yes
(pireps marked green are flown by you)

Route map